sensor_id;sensor_type;location;lat;lon;timestamp;P1;durP1;ratioP1;P2;durP2;ratioP2
22644;SDS011;11489;50.834;6.752;2023-03-14T00:01:18;3.00;;;1.10;;
22644;SDS011;11489;50.834;6.752;2023-03-14T00:03:47;4.13;;;1.30;;
22644;SDS011;11489;50.834;6.752;2023-03-14T00:06:14;4.90;;;1.45;;
22644;SDS011;11489;50.834;6.752;2023-03-14T00:08:41;3.28;;;1.23;;
22644;SDS011;11489;50.834;6.752;2023-03-14T00:11:08;4.28;;;1.02;;
22644;SDS011;11489;50.834;6.752;2023-03-14T00:13:36;3.67;;;1.20;;
22644;SDS011;11489;50.834;6.752;2023-03-14T00:16:05;6.57;;;1.40;;
22644;SDS011;11489;50.834;6.752;2023-03-14T00:18:33;5.63;;;1.58;;
22644;SDS011;11489;50.834;6.752;2023-03-14T00:20:59;4.20;;;1.52;;
22644;SDS011;11489;50.834;6.752;2023-03-14T00:23:27;6.35;;;1.30;;
22644;SDS011;11489;50.834;6.752;2023-03-14T00:25:57;5.22;;;1.40;;
22644;SDS011;11489;50.834;6.752;2023-03-14T00:28:27;5.55;;;1.52;;
22644;SDS011;11489;50.834;6.752;2023-03-14T00:30:53;3.72;;;1.35;;
22644;SDS011;11489;50.834;6.752;2023-03-14T00:33:19;7.75;;;1.50;;
22644;SDS011;11489;50.834;6.752;2023-03-14T00:35:52;4.90;;;1.33;;
22644;SDS011;11489;50.834;6.752;2023-03-14T00:38:22;5.85;;;1.20;;
22644;SDS011;11489;50.834;6.752;2023-03-14T00:40:49;6.80;;;1.35;;
22644;SDS011;11489;50.834;6.752;2023-03-14T00:43:16;4.05;;;1.10;;
22644;SDS011;11489;50.834;6.752;2023-03-14T00:45:42;2.47;;;0.90;;
22644;SDS011;11489;50.834;6.752;2023-03-14T00:48:07;4.40;;;0.95;;
22644;SDS011;11489;50.834;6.752;2023-03-14T00:50:33;3.97;;;1.10;;
22644;SDS011;11489;50.834;6.752;2023-03-14T00:52:58;2.97;;;0.90;;
22644;SDS011;11489;50.834;6.752;2023-03-14T00:55:24;4.18;;;1.10;;
22644;SDS011;11489;50.834;6.752;2023-03-14T00:57:50;3.38;;;1.10;;
22644;SDS011;11489;50.834;6.752;2023-03-14T01:00:16;5.75;;;1.38;;
22644;SDS011;11489;50.834;6.752;2023-03-14T01:02:42;4.65;;;1.40;;
22644;SDS011;11489;50.834;6.752;2023-03-14T01:05:08;3.38;;;1.10;;
22644;SDS011;11489;50.834;6.752;2023-03-14T01:07:36;3.75;;;1.13;;
22644;SDS011;11489;50.834;6.752;2023-03-14T01:10:02;3.78;;;1.00;;
22644;SDS011;11489;50.834;6.752;2023-03-14T01:12:29;6.93;;;1.08;;
22644;SDS011;11489;50.834;6.752;2023-03-14T01:14:54;4.85;;;1.35;;
22644;SDS011;11489;50.834;6.752;2023-03-14T01:17:20;4.82;;;1.20;;
22644;SDS011;11489;50.834;6.752;2023-03-14T01:19:46;5.50;;;1.10;;
22644;SDS011;11489;50.834;6.752;2023-03-14T01:22:12;3.40;;;1.05;;
22644;SDS011;11489;50.834;6.752;2023-03-14T01:24:38;6.05;;;0.80;;
22644;SDS011;11489;50.834;6.752;2023-03-14T01:27:03;3.00;;;0.80;;
22644;SDS011;11489;50.834;6.752;2023-03-14T01:29:29;4.47;;;0.57;;
22644;SDS011;11489;50.834;6.752;2023-03-14T01:31:55;1.95;;;0.60;;
22644;SDS011;11489;50.834;6.752;2023-03-14T01:34:21;3.28;;;0.77;;
22644;SDS011;11489;50.834;6.752;2023-03-14T01:36:46;3.13;;;0.50;;
22644;SDS011;11489;50.834;6.752;2023-03-14T01:39:12;2.47;;;0.55;;
22644;SDS011;11489;50.834;6.752;2023-03-14T01:41:38;1.77;;;0.70;;
22644;SDS011;11489;50.834;6.752;2023-03-14T01:44:04;1.55;;;0.50;;
22644;SDS011;11489;50.834;6.752;2023-03-14T01:49:07;3.58;;;0.50;;
22644;SDS011;11489;50.834;6.752;2023-03-14T01:56:48;1.25;;;0.50;;
22644;SDS011;11489;50.834;6.752;2023-03-14T01:59:18;5.07;;;0.60;;
22644;SDS011;11489;50.834;6.752;2023-03-14T02:01:44;2.97;;;0.50;;
22644;SDS011;11489;50.834;6.752;2023-03-14T02:04:12;1.80;;;0.40;;
22644;SDS011;11489;50.834;6.752;2023-03-14T02:06:44;2.85;;;0.60;;
22644;SDS011;11489;50.834;6.752;2023-03-14T02:09:20;1.55;;;0.50;;
22644;SDS011;11489;50.834;6.752;2023-03-14T02:11:46;1.85;;;0.50;;
22644;SDS011;11489;50.834;6.752;2023-03-14T02:14:25;3.05;;;0.50;;
22644;SDS011;11489;50.834;6.752;2023-03-14T02:17:00;3.20;;;0.55;;
22644;SDS011;11489;50.834;6.752;2023-03-14T02:19:34;1.42;;;0.50;;
22644;SDS011;11489;50.834;6.752;2023-03-14T02:22:09;1.38;;;0.60;;
22644;SDS011;11489;50.834;6.752;2023-03-14T02:27:15;1.38;;;0.50;;
22644;SDS011;11489;50.834;6.752;2023-03-14T02:30:02;1.13;;;0.30;;
22644;SDS011;11489;50.834;6.752;2023-03-14T02:32:31;1.73;;;0.43;;
22644;SDS011;11489;50.834;6.752;2023-03-14T02:35:00;1.75;;;0.40;;
22644;SDS011;11489;50.834;6.752;2023-03-14T02:37:33;1.02;;;0.40;;
22644;SDS011;11489;50.834;6.752;2023-03-14T02:40:03;1.15;;;0.57;;
22644;SDS011;11489;50.834;6.752;2023-03-14T02:42:30;2.03;;;0.40;;
22644;SDS011;11489;50.834;6.752;2023-03-14T02:47:33;1.20;;;0.60;;
22644;SDS011;11489;50.834;6.752;2023-03-14T02:50:05;4.10;;;0.80;;
22644;SDS011;11489;50.834;6.752;2023-03-14T02:52:38;2.13;;;0.85;;
22644;SDS011;11489;50.834;6.752;2023-03-14T02:55:04;3.22;;;0.88;;
22644;SDS011;11489;50.834;6.752;2023-03-14T02:57:30;6.50;;;1.40;;
22644;SDS011;11489;50.834;6.752;2023-03-14T02:59:59;4.38;;;1.08;;
22644;SDS011;11489;50.834;6.752;2023-03-14T03:02:26;8.02;;;1.42;;
22644;SDS011;11489;50.834;6.752;2023-03-14T03:04:52;3.03;;;1.02;;
22644;SDS011;11489;50.834;6.752;2023-03-14T03:07:18;3.55;;;1.20;;
22644;SDS011;11489;50.834;6.752;2023-03-14T03:09:45;7.70;;;1.48;;
22644;SDS011;11489;50.834;6.752;2023-03-14T03:12:10;7.22;;;1.30;;
22644;SDS011;11489;50.834;6.752;2023-03-14T03:14:36;4.95;;;1.27;;
22644;SDS011;11489;50.834;6.752;2023-03-14T03:17:03;5.78;;;1.33;;
22644;SDS011;11489;50.834;6.752;2023-03-14T03:19:32;7.60;;;1.77;;
22644;SDS011;11489;50.834;6.752;2023-03-14T03:21:58;5.35;;;1.60;;
22644;SDS011;11489;50.834;6.752;2023-03-14T03:24:24;6.05;;;1.25;;
22644;SDS011;11489;50.834;6.752;2023-03-14T03:26:51;9.95;;;1.80;;
22644;SDS011;11489;50.834;6.752;2023-03-14T03:29:16;3.97;;;1.10;;
22644;SDS011;11489;50.834;6.752;2023-03-14T03:31:42;5.47;;;1.20;;
22644;SDS011;11489;50.834;6.752;2023-03-14T03:34:10;6.70;;;1.50;;
22644;SDS011;11489;50.834;6.752;2023-03-14T03:36:36;6.05;;;1.52;;
22644;SDS011;11489;50.834;6.752;2023-03-14T03:39:02;8.15;;;1.45;;
22644;SDS011;11489;50.834;6.752;2023-03-14T03:41:28;7.97;;;1.30;;
22644;SDS011;11489;50.834;6.752;2023-03-14T03:43:54;4.10;;;1.00;;
22644;SDS011;11489;50.834;6.752;2023-03-14T03:46:20;6.63;;;1.52;;
22644;SDS011;11489;50.834;6.752;2023-03-14T03:48:46;5.10;;;1.30;;
22644;SDS011;11489;50.834;6.752;2023-03-14T03:51:15;3.80;;;1.20;;
22644;SDS011;11489;50.834;6.752;2023-03-14T03:53:41;5.93;;;1.30;;
22644;SDS011;11489;50.834;6.752;2023-03-14T03:56:08;3.95;;;1.13;;
22644;SDS011;11489;50.834;6.752;2023-03-14T03:58:34;4.35;;;1.05;;
22644;SDS011;11489;50.834;6.752;2023-03-14T04:01:00;5.05;;;1.00;;
22644;SDS011;11489;50.834;6.752;2023-03-14T04:03:26;2.38;;;0.90;;
22644;SDS011;11489;50.834;6.752;2023-03-14T04:08:49;3.33;;;0.98;;
22644;SDS011;11489;50.834;6.752;2023-03-14T04:11:15;3.63;;;1.00;;
22644;SDS011;11489;50.834;6.752;2023-03-14T04:13:41;4.93;;;0.98;;
22644;SDS011;11489;50.834;6.752;2023-03-14T04:16:19;3.17;;;1.05;;
22644;SDS011;11489;50.834;6.752;2023-03-14T04:18:46;4.88;;;1.02;;
22644;SDS011;11489;50.834;6.752;2023-03-14T04:21:13;3.25;;;0.70;;
22644;SDS011;11489;50.834;6.752;2023-03-14T04:23:39;3.58;;;0.80;;
22644;SDS011;11489;50.834;6.752;2023-03-14T04:26:04;2.88;;;0.88;;
22644;SDS011;11489;50.834;6.752;2023-03-14T04:28:30;4.28;;;0.70;;
22644;SDS011;11489;50.834;6.752;2023-03-14T04:30:56;3.80;;;0.63;;
22644;SDS011;11489;50.834;6.752;2023-03-14T04:33:21;0.57;;;0.40;;
22644;SDS011;11489;50.834;6.752;2023-03-14T04:35:47;1.55;;;0.60;;
22644;SDS011;11489;50.834;6.752;2023-03-14T04:38:15;2.33;;;0.70;;
22644;SDS011;11489;50.834;6.752;2023-03-14T04:40:41;2.05;;;0.50;;
22644;SDS011;11489;50.834;6.752;2023-03-14T04:43:08;1.48;;;0.40;;
22644;SDS011;11489;50.834;6.752;2023-03-14T04:45:35;2.13;;;0.40;;
22644;SDS011;11489;50.834;6.752;2023-03-14T04:48:01;1.45;;;0.40;;
22644;SDS011;11489;50.834;6.752;2023-03-14T04:50:26;1.67;;;0.40;;
22644;SDS011;11489;50.834;6.752;2023-03-14T04:52:52;1.58;;;0.47;;
22644;SDS011;11489;50.834;6.752;2023-03-14T04:55:19;0.80;;;0.40;;
22644;SDS011;11489;50.834;6.752;2023-03-14T04:57:44;1.10;;;0.73;;
22644;SDS011;11489;50.834;6.752;2023-03-14T05:00:10;1.00;;;0.30;;
22644;SDS011;11489;50.834;6.752;2023-03-14T05:02:36;0.68;;;0.35;;
22644;SDS011;11489;50.834;6.752;2023-03-14T05:05:02;0.77;;;0.28;;
22644;SDS011;11489;50.834;6.752;2023-03-14T05:07:28;0.93;;;0.22;;
22644;SDS011;11489;50.834;6.752;2023-03-14T05:09:53;0.50;;;0.20;;
22644;SDS011;11489;50.834;6.752;2023-03-14T05:12:20;0.32;;;0.20;;
22644;SDS011;11489;50.834;6.752;2023-03-14T05:14:46;0.57;;;0.20;;
22644;SDS011;11489;50.834;6.752;2023-03-14T05:17:12;0.15;;;0.15;;
22644;SDS011;11489;50.834;6.752;2023-03-14T05:19:39;0.95;;;0.13;;
22644;SDS011;11489;50.834;6.752;2023-03-14T05:22:06;0.32;;;0.17;;
22644;SDS011;11489;50.834;6.752;2023-03-14T05:24:32;0.40;;;0.20;;
22644;SDS011;11489;50.834;6.752;2023-03-14T05:26:58;0.13;;;0.10;;
22644;SDS011;11489;50.834;6.752;2023-03-14T05:29:23;0.25;;;0.20;;
22644;SDS011;11489;50.834;6.752;2023-03-14T05:31:49;0.30;;;0.10;;
22644;SDS011;11489;50.834;6.752;2023-03-14T05:34:14;1.45;;;0.10;;
22644;SDS011;11489;50.834;6.752;2023-03-14T05:36:40;0.10;;;0.10;;
22644;SDS011;11489;50.834;6.752;2023-03-14T05:39:06;0.20;;;0.20;;
22644;SDS011;11489;50.834;6.752;2023-03-14T05:41:31;0.10;;;0.10;;
22644;SDS011;11489;50.834;6.752;2023-03-14T05:43:57;0.20;;;0.20;;
22644;SDS011;11489;50.834;6.752;2023-03-14T05:46:23;0.63;;;0.20;;
22644;SDS011;11489;50.834;6.752;2023-03-14T05:48:51;0.68;;;0.10;;
22644;SDS011;11489;50.834;6.752;2023-03-14T05:51:17;0.65;;;0.20;;
22644;SDS011;11489;50.834;6.752;2023-03-14T05:53:42;0.98;;;0.10;;
22644;SDS011;11489;50.834;6.752;2023-03-14T05:56:08;0.57;;;0.10;;
22644;SDS011;11489;50.834;6.752;2023-03-14T05:58:34;0.10;;;0.10;;
22644;SDS011;11489;50.834;6.752;2023-03-14T06:01:03;0.47;;;0.10;;
22644;SDS011;11489;50.834;6.752;2023-03-14T06:03:29;0.10;;;0.10;;
22644;SDS011;11489;50.834;6.752;2023-03-14T06:05:55;1.17;;;0.17;;
22644;SDS011;11489;50.834;6.752;2023-03-14T06:08:20;0.20;;;0.10;;
22644;SDS011;11489;50.834;6.752;2023-03-14T06:10:46;0.77;;;0.10;;
22644;SDS011;11489;50.834;6.752;2023-03-14T06:13:12;0.32;;;0.10;;
22644;SDS011;11489;50.834;6.752;2023-03-14T06:15:37;0.40;;;0.30;;
22644;SDS011;11489;50.834;6.752;2023-03-14T06:18:03;0.40;;;0.30;;
22644;SDS011;11489;50.834;6.752;2023-03-14T06:20:29;0.10;;;0.10;;
22644;SDS011;11489;50.834;6.752;2023-03-14T06:22:54;0.10;;;0.10;;
22644;SDS011;11489;50.834;6.752;2023-03-14T06:25:20;0.75;;;0.10;;
22644;SDS011;11489;50.834;6.752;2023-03-14T06:27:46;0.60;;;0.10;;
22644;SDS011;11489;50.834;6.752;2023-03-14T06:30:11;0.15;;;0.10;;
22644;SDS011;11489;50.834;6.752;2023-03-14T06:32:37;1.13;;;0.22;;
22644;SDS011;11489;50.834;6.752;2023-03-14T06:35:03;0.73;;;0.13;;
22644;SDS011;11489;50.834;6.752;2023-03-14T06:37:29;0.10;;;0.10;;
22644;SDS011;11489;50.834;6.752;2023-03-14T06:39:55;0.57;;;0.20;;
22644;SDS011;11489;50.834;6.752;2023-03-14T06:42:21;0.10;;;0.10;;
22644;SDS011;11489;50.834;6.752;2023-03-14T06:44:47;0.15;;;0.15;;
22644;SDS011;11489;50.834;6.752;2023-03-14T06:47:13;0.20;;;0.20;;
22644;SDS011;11489;50.834;6.752;2023-03-14T06:49:39;0.95;;;0.10;;
22644;SDS011;11489;50.834;6.752;2023-03-14T06:52:05;0.38;;;0.20;;
22644;SDS011;11489;50.834;6.752;2023-03-14T06:54:30;0.40;;;0.10;;
22644;SDS011;11489;50.834;6.752;2023-03-14T06:56:56;0.45;;;0.10;;
22644;SDS011;11489;50.834;6.752;2023-03-14T06:59:22;0.13;;;0.10;;
22644;SDS011;11489;50.834;6.752;2023-03-14T07:01:47;0.10;;;0.10;;
22644;SDS011;11489;50.834;6.752;2023-03-14T07:04:15;0.43;;;0.10;;
22644;SDS011;11489;50.834;6.752;2023-03-14T07:06:41;0.10;;;0.10;;
22644;SDS011;11489;50.834;6.752;2023-03-14T07:09:12;0.10;;;0.10;;
22644;SDS011;11489;50.834;6.752;2023-03-14T07:11:38;0.10;;;0.10;;
22644;SDS011;11489;50.834;6.752;2023-03-14T07:14:04;0.00;;;0.00;;
22644;SDS011;11489;50.834;6.752;2023-03-14T07:16:30;0.47;;;0.10;;
22644;SDS011;11489;50.834;6.752;2023-03-14T07:18:58;0.20;;;0.20;;
22644;SDS011;11489;50.834;6.752;2023-03-14T07:21:24;0.10;;;0.10;;
22644;SDS011;11489;50.834;6.752;2023-03-14T07:23:50;1.00;;;0.20;;
22644;SDS011;11489;50.834;6.752;2023-03-14T07:26:16;0.10;;;0.10;;
22644;SDS011;11489;50.834;6.752;2023-03-14T07:28:42;0.10;;;0.10;;
22644;SDS011;11489;50.834;6.752;2023-03-14T07:31:08;0.90;;;0.20;;
22644;SDS011;11489;50.834;6.752;2023-03-14T07:33:33;0.25;;;0.10;;
22644;SDS011;11489;50.834;6.752;2023-03-14T07:35:59;0.38;;;0.10;;
22644;SDS011;11489;50.834;6.752;2023-03-14T07:38:25;0.13;;;0.10;;
22644;SDS011;11489;50.834;6.752;2023-03-14T07:40:57;0.00;;;0.00;;
22644;SDS011;11489;50.834;6.752;2023-03-14T07:43:24;0.20;;;0.10;;
22644;SDS011;11489;50.834;6.752;2023-03-14T07:45:49;0.25;;;0.10;;
22644;SDS011;11489;50.834;6.752;2023-03-14T07:48:15;0.10;;;0.10;;
22644;SDS011;11489;50.834;6.752;2023-03-14T07:50:41;0.10;;;0.10;;
22644;SDS011;11489;50.834;6.752;2023-03-14T07:53:06;0.25;;;0.10;;
22644;SDS011;11489;50.834;6.752;2023-03-14T07:55:32;0.10;;;0.10;;
22644;SDS011;11489;50.834;6.752;2023-03-14T07:57:58;0.10;;;0.10;;
22644;SDS011;11489;50.834;6.752;2023-03-14T08:00:23;0.15;;;0.15;;
22644;SDS011;11489;50.834;6.752;2023-03-14T08:02:49;0.47;;;0.15;;
22644;SDS011;11489;50.834;6.752;2023-03-14T08:05:15;0.13;;;0.10;;
22644;SDS011;11489;50.834;6.752;2023-03-14T08:07:40;0.60;;;0.20;;
22644;SDS011;11489;50.834;6.752;2023-03-14T08:10:06;0.10;;;0.10;;
22644;SDS011;11489;50.834;6.752;2023-03-14T08:12:33;0.10;;;0.10;;
22644;SDS011;11489;50.834;6.752;2023-03-14T08:14:59;0.10;;;0.10;;
22644;SDS011;11489;50.834;6.752;2023-03-14T08:17:24;0.50;;;0.10;;
22644;SDS011;11489;50.834;6.752;2023-03-14T08:19:50;0.10;;;0.10;;
22644;SDS011;11489;50.834;6.752;2023-03-14T08:22:16;0.35;;;0.20;;
22644;SDS011;11489;50.834;6.752;2023-03-14T08:24:41;0.73;;;0.20;;
22644;SDS011;11489;50.834;6.752;2023-03-14T08:27:07;0.20;;;0.10;;
22644;SDS011;11489;50.834;6.752;2023-03-14T08:29:33;0.10;;;0.10;;
22644;SDS011;11489;50.834;6.752;2023-03-14T08:31:59;0.20;;;0.13;;
22644;SDS011;11489;50.834;6.752;2023-03-14T08:34:24;0.20;;;0.13;;
22644;SDS011;11489;50.834;6.752;2023-03-14T08:36:50;0.10;;;0.10;;
22644;SDS011;11489;50.834;6.752;2023-03-14T08:39:16;0.10;;;0.10;;
22644;SDS011;11489;50.834;6.752;2023-03-14T08:41:41;0.52;;;0.20;;
22644;SDS011;11489;50.834;6.752;2023-03-14T08:44:09;2.75;;;0.50;;
22644;SDS011;11489;50.834;6.752;2023-03-14T08:46:36;0.40;;;0.30;;
22644;SDS011;11489;50.834;6.752;2023-03-14T08:49:02;2.53;;;0.17;;
22644;SDS011;11489;50.834;6.752;2023-03-14T08:51:28;0.50;;;0.30;;
22644;SDS011;11489;50.834;6.752;2023-03-14T08:53:54;0.70;;;0.20;;
22644;SDS011;11489;50.834;6.752;2023-03-14T08:56:20;0.65;;;0.28;;
22644;SDS011;11489;50.834;6.752;2023-03-14T08:58:46;0.30;;;0.20;;
22644;SDS011;11489;50.834;6.752;2023-03-14T09:01:11;0.15;;;0.15;;
22644;SDS011;11489;50.834;6.752;2023-03-14T09:03:37;0.20;;;0.13;;
22644;SDS011;11489;50.834;6.752;2023-03-14T09:06:04;0.35;;;0.13;;
22644;SDS011;11489;50.834;6.752;2023-03-14T09:08:34;0.10;;;0.10;;
22644;SDS011;11489;50.834;6.752;2023-03-14T09:11:00;0.10;;;0.10;;
22644;SDS011;11489;50.834;6.752;2023-03-14T09:13:25;0.40;;;0.20;;
22644;SDS011;11489;50.834;6.752;2023-03-14T09:15:51;0.17;;;0.13;;
22644;SDS011;11489;50.834;6.752;2023-03-14T09:18:21;0.28;;;0.20;;
22644;SDS011;11489;50.834;6.752;2023-03-14T09:20:47;0.75;;;0.20;;
22644;SDS011;11489;50.834;6.752;2023-03-14T09:23:13;1.58;;;0.20;;
22644;SDS011;11489;50.834;6.752;2023-03-14T09:25:39;0.20;;;0.20;;
22644;SDS011;11489;50.834;6.752;2023-03-14T09:28:05;1.00;;;0.20;;
22644;SDS011;11489;50.834;6.752;2023-03-14T09:30:30;0.22;;;0.22;;
22644;SDS011;11489;50.834;6.752;2023-03-14T09:32:56;0.43;;;0.38;;
22644;SDS011;11489;50.834;6.752;2023-03-14T09:35:23;0.38;;;0.35;;
22644;SDS011;11489;50.834;6.752;2023-03-14T09:37:48;2.80;;;0.60;;
22644;SDS011;11489;50.834;6.752;2023-03-14T09:40:15;2.85;;;0.70;;
22644;SDS011;11489;50.834;6.752;2023-03-14T09:42:43;0.98;;;0.60;;
22644;SDS011;11489;50.834;6.752;2023-03-14T09:45:13;1.30;;;0.68;;
22644;SDS011;11489;50.834;6.752;2023-03-14T09:47:49;0.65;;;0.50;;
22644;SDS011;11489;50.834;6.752;2023-03-14T09:50:15;1.55;;;0.60;;
22644;SDS011;11489;50.834;6.752;2023-03-14T09:53:03;1.67;;;0.70;;
22644;SDS011;11489;50.834;6.752;2023-03-14T09:55:29;1.55;;;0.82;;
22644;SDS011;11489;50.834;6.752;2023-03-14T09:57:57;2.58;;;1.10;;
22644;SDS011;11489;50.834;6.752;2023-03-14T10:00:27;1.50;;;0.98;;
22644;SDS011;11489;50.834;6.752;2023-03-14T10:03:37;3.00;;;1.02;;
22644;SDS011;11489;50.834;6.752;2023-03-14T10:05:54;1.95;;;0.95;;
22644;SDS011;11489;50.834;6.752;2023-03-14T10:08:20;0.70;;;0.70;;
22644;SDS011;11489;50.834;6.752;2023-03-14T10:10:46;1.35;;;0.93;;
22644;SDS011;11489;50.834;6.752;2023-03-14T10:13:17;1.30;;;0.98;;
22644;SDS011;11489;50.834;6.752;2023-03-14T10:15:50;2.65;;;0.95;;
22644;SDS011;11489;50.834;6.752;2023-03-14T10:18:22;2.38;;;0.93;;
22644;SDS011;11489;50.834;6.752;2023-03-14T10:20:49;3.63;;;1.08;;
22644;SDS011;11489;50.834;6.752;2023-03-14T10:23:27;1.90;;;0.95;;
22644;SDS011;11489;50.834;6.752;2023-03-14T10:26:08;1.02;;;0.80;;
22644;SDS011;11489;50.834;6.752;2023-03-14T10:28:39;1.25;;;0.90;;
22644;SDS011;11489;50.834;6.752;2023-03-14T10:31:16;1.75;;;1.15;;
22644;SDS011;11489;50.834;6.752;2023-03-14T10:33:42;2.83;;;0.80;;
22644;SDS011;11489;50.834;6.752;2023-03-14T10:36:27;6.07;;;1.00;;
22644;SDS011;11489;50.834;6.752;2023-03-14T10:39:18;1.75;;;0.98;;
22644;SDS011;11489;50.834;6.752;2023-03-14T10:42:05;2.55;;;0.80;;
22644;SDS011;11489;50.834;6.752;2023-03-14T10:44:40;0.85;;;0.70;;
22644;SDS011;11489;50.834;6.752;2023-03-14T10:47:14;0.95;;;0.75;;
22644;SDS011;11489;50.834;6.752;2023-03-14T10:49:45;1.13;;;0.63;;
22644;SDS011;11489;50.834;6.752;2023-03-14T10:52:17;1.67;;;0.70;;
22644;SDS011;11489;50.834;6.752;2023-03-14T10:54:53;1.50;;;0.73;;
22644;SDS011;11489;50.834;6.752;2023-03-14T10:57:22;1.13;;;0.73;;
22644;SDS011;11489;50.834;6.752;2023-03-14T10:59:48;1.65;;;0.88;;
22644;SDS011;11489;50.834;6.752;2023-03-14T11:02:26;2.55;;;1.10;;
22644;SDS011;11489;50.834;6.752;2023-03-14T11:05:05;0.80;;;0.70;;
22644;SDS011;11489;50.834;6.752;2023-03-14T11:07:47;2.67;;;0.95;;
22644;SDS011;11489;50.834;6.752;2023-03-14T11:10:20;1.73;;;0.82;;
22644;SDS011;11489;50.834;6.752;2023-03-14T11:13:12;1.58;;;0.80;;
22644;SDS011;11489;50.834;6.752;2023-03-14T11:16:37;3.45;;;0.73;;
22644;SDS011;11489;50.834;6.752;2023-03-14T11:21:32;5.72;;;0.88;;
22644;SDS011;11489;50.834;6.752;2023-03-14T11:31:47;2.13;;;1.08;;
22644;SDS011;11489;50.834;6.752;2023-03-14T11:34:17;1.23;;;1.10;;
22644;SDS011;11489;50.834;6.752;2023-03-14T11:39:19;1.95;;;1.35;;
22644;SDS011;11489;50.834;6.752;2023-03-14T11:41:46;2.65;;;1.30;;
22644;SDS011;11489;50.834;6.752;2023-03-14T11:44:18;2.58;;;1.50;;
22644;SDS011;11489;50.834;6.752;2023-03-14T11:46:55;3.40;;;1.75;;
22644;SDS011;11489;50.834;6.752;2023-03-14T11:49:43;1.95;;;1.50;;
22644;SDS011;11489;50.834;6.752;2023-03-14T11:55:31;1.13;;;0.50;;
22644;SDS011;11489;50.834;6.752;2023-03-14T11:58:05;0.30;;;0.30;;
22644;SDS011;11489;50.834;6.752;2023-03-14T12:00:38;1.40;;;0.30;;
22644;SDS011;11489;50.834;6.752;2023-03-14T12:03:10;1.05;;;0.30;;
22644;SDS011;11489;50.834;6.752;2023-03-14T12:05:48;1.55;;;0.50;;
22644;SDS011;11489;50.834;6.752;2023-03-14T12:13:58;2.30;;;0.60;;
22644;SDS011;11489;50.834;6.752;2023-03-14T12:18:51;4.05;;;0.70;;
22644;SDS011;11489;50.834;6.752;2023-03-14T12:21:17;0.80;;;0.70;;
22644;SDS011;11489;50.834;6.752;2023-03-14T12:23:54;3.38;;;0.98;;
22644;SDS011;11489;50.834;6.752;2023-03-14T12:26:23;4.07;;;0.73;;
22644;SDS011;11489;50.834;6.752;2023-03-14T12:34:24;4.82;;;1.20;;
22644;SDS011;11489;50.834;6.752;2023-03-14T12:36:52;3.83;;;0.98;;
22644;SDS011;11489;50.834;6.752;2023-03-14T12:44:41;2.13;;;1.40;;
22644;SDS011;11489;50.834;6.752;2023-03-14T12:49:44;2.47;;;1.70;;
22644;SDS011;11489;50.834;6.752;2023-03-14T12:52:15;3.00;;;1.60;;
22644;SDS011;11489;50.834;6.752;2023-03-14T12:54:58;3.63;;;1.50;;
22644;SDS011;11489;50.834;6.752;2023-03-14T12:57:49;9.55;;;1.75;;
22644;SDS011;11489;50.834;6.752;2023-03-14T13:00:21;5.72;;;1.60;;
22644;SDS011;11489;50.834;6.752;2023-03-14T13:03:18;4.43;;;1.40;;
22644;SDS011;11489;50.834;6.752;2023-03-14T13:08:42;3.75;;;1.40;;
22644;SDS011;11489;50.834;6.752;2023-03-14T13:11:10;5.03;;;1.48;;
22644;SDS011;11489;50.834;6.752;2023-03-14T13:13:47;4.57;;;1.80;;
22644;SDS011;11489;50.834;6.752;2023-03-14T13:16:18;4.03;;;1.60;;
22644;SDS011;11489;50.834;6.752;2023-03-14T13:18:46;4.80;;;1.40;;
22644;SDS011;11489;50.834;6.752;2023-03-14T13:21:34;6.70;;;1.55;;
22644;SDS011;11489;50.834;6.752;2023-03-14T13:24:03;5.05;;;1.55;;
22644;SDS011;11489;50.834;6.752;2023-03-14T13:26:37;6.85;;;1.80;;
22644;SDS011;11489;50.834;6.752;2023-03-14T13:29:08;7.93;;;1.70;;
22644;SDS011;11489;50.834;6.752;2023-03-14T13:31:43;4.88;;;1.52;;
22644;SDS011;11489;50.834;6.752;2023-03-14T13:34:10;6.22;;;1.75;;
22644;SDS011;11489;50.834;6.752;2023-03-14T13:36:37;7.57;;;1.42;;
22644;SDS011;11489;50.834;6.752;2023-03-14T13:39:03;8.35;;;1.40;;
22644;SDS011;11489;50.834;6.752;2023-03-14T13:41:53;6.90;;;1.55;;
22644;SDS011;11489;50.834;6.752;2023-03-14T13:44:24;9.65;;;1.90;;
22644;SDS011;11489;50.834;6.752;2023-03-14T13:46:57;7.78;;;1.98;;
22644;SDS011;11489;50.834;6.752;2023-03-14T13:49:25;6.75;;;1.63;;
22644;SDS011;11489;50.834;6.752;2023-03-14T13:51:51;12.63;;;2.83;;
22644;SDS011;11489;50.834;6.752;2023-03-14T13:54:18;13.95;;;2.28;;
22644;SDS011;11489;50.834;6.752;2023-03-14T13:56:45;11.93;;;2.58;;
22644;SDS011;11489;50.834;6.752;2023-03-14T13:59:21;15.18;;;3.13;;
22644;SDS011;11489;50.834;6.752;2023-03-14T14:01:50;8.57;;;2.50;;
22644;SDS011;11489;50.834;6.752;2023-03-14T14:04:18;9.15;;;2.25;;
22644;SDS011;11489;50.834;6.752;2023-03-14T14:07:05;10.20;;;2.83;;
22644;SDS011;11489;50.834;6.752;2023-03-14T14:09:37;11.63;;;2.13;;
22644;SDS011;11489;50.834;6.752;2023-03-14T14:12:05;11.40;;;3.05;;
22644;SDS011;11489;50.834;6.752;2023-03-14T14:14:39;9.90;;;2.38;;
22644;SDS011;11489;50.834;6.752;2023-03-14T14:17:23;6.70;;;1.83;;
22644;SDS011;11489;50.834;6.752;2023-03-14T14:19:52;14.43;;;2.90;;
22644;SDS011;11489;50.834;6.752;2023-03-14T14:22:21;11.02;;;2.67;;
22644;SDS011;11489;50.834;6.752;2023-03-14T14:24:47;9.85;;;2.47;;
22644;SDS011;11489;50.834;6.752;2023-03-14T14:29:39;11.82;;;1.80;;
22644;SDS011;11489;50.834;6.752;2023-03-14T14:34:46;7.82;;;1.80;;
22644;SDS011;11489;50.834;6.752;2023-03-14T14:37:22;7.93;;;1.80;;
22644;SDS011;11489;50.834;6.752;2023-03-14T14:39:54;10.35;;;2.10;;
22644;SDS011;11489;50.834;6.752;2023-03-14T14:42:24;8.27;;;2.17;;
22644;SDS011;11489;50.834;6.752;2023-03-14T14:44:55;8.88;;;2.30;;
22644;SDS011;11489;50.834;6.752;2023-03-14T14:47:22;7.20;;;2.15;;
22644;SDS011;11489;50.834;6.752;2023-03-14T14:49:50;13.27;;;2.47;;
22644;SDS011;11489;50.834;6.752;2023-03-14T14:52:22;13.77;;;2.25;;
22644;SDS011;11489;50.834;6.752;2023-03-14T14:54:59;12.10;;;2.65;;
22644;SDS011;11489;50.834;6.752;2023-03-14T14:57:33;9.23;;;1.98;;
22644;SDS011;11489;50.834;6.752;2023-03-14T15:00:09;15.30;;;2.50;;
22644;SDS011;11489;50.834;6.752;2023-03-14T15:02:47;11.35;;;2.17;;
22644;SDS011;11489;50.834;6.752;2023-03-14T15:05:32;12.45;;;2.45;;
22644;SDS011;11489;50.834;6.752;2023-03-14T15:08:00;15.02;;;2.38;;
22644;SDS011;11489;50.834;6.752;2023-03-14T15:10:26;15.00;;;2.42;;
22644;SDS011;11489;50.834;6.752;2023-03-14T15:12:52;17.08;;;2.08;;
22644;SDS011;11489;50.834;6.752;2023-03-14T15:15:18;13.27;;;2.60;;
22644;SDS011;11489;50.834;6.752;2023-03-14T15:17:44;12.70;;;2.10;;
22644;SDS011;11489;50.834;6.752;2023-03-14T15:20:10;11.85;;;2.08;;
22644;SDS011;11489;50.834;6.752;2023-03-14T15:22:39;9.68;;;2.25;;
22644;SDS011;11489;50.834;6.752;2023-03-14T15:25:05;11.43;;;1.92;;
22644;SDS011;11489;50.834;6.752;2023-03-14T15:27:31;9.00;;;1.80;;
22644;SDS011;11489;50.834;6.752;2023-03-14T15:29:57;23.85;;;2.25;;
22644;SDS011;11489;50.834;6.752;2023-03-14T15:32:24;11.75;;;2.30;;
22644;SDS011;11489;50.834;6.752;2023-03-14T15:34:52;13.63;;;2.78;;
22644;SDS011;11489;50.834;6.752;2023-03-14T15:37:21;8.15;;;1.98;;
22644;SDS011;11489;50.834;6.752;2023-03-14T15:39:47;11.13;;;2.10;;
22644;SDS011;11489;50.834;6.752;2023-03-14T15:42:13;10.93;;;2.00;;
22644;SDS011;11489;50.834;6.752;2023-03-14T15:44:38;8.85;;;2.00;;
22644;SDS011;11489;50.834;6.752;2023-03-14T15:47:04;8.85;;;1.98;;
22644;SDS011;11489;50.834;6.752;2023-03-14T15:49:31;11.35;;;1.70;;
22644;SDS011;11489;50.834;6.752;2023-03-14T15:51:57;15.45;;;2.30;;
22644;SDS011;11489;50.834;6.752;2023-03-14T15:54:23;14.43;;;2.17;;
22644;SDS011;11489;50.834;6.752;2023-03-14T15:56:48;9.80;;;2.15;;